sensor_id;sensor_type;location;lat;lon;timestamp;P1;durP1;ratioP1;P2;durP2;ratioP2
45684;SDS011;46836;48.388;16.210;2022-11-15T00:01:08;48.47;;;22.35;;
45684;SDS011;46836;48.388;16.210;2022-11-15T00:03:36;47.42;;;21.75;;
45684;SDS011;46836;48.388;16.210;2022-11-15T00:06:03;43.05;;;20.90;;
45684;SDS011;46836;48.388;16.210;2022-11-15T00:08:31;47.90;;;22.08;;
45684;SDS011;46836;48.388;16.210;2022-11-15T00:11:00;43.75;;;21.25;;
45684;SDS011;46836;48.388;16.210;2022-11-15T00:13:28;49.45;;;23.42;;
45684;SDS011;46836;48.388;16.210;2022-11-15T00:15:57;47.45;;;23.30;;
45684;SDS011;46836;48.388;16.210;2022-11-15T00:18:25;49.42;;;22.35;;
45684;SDS011;46836;48.388;16.210;2022-11-15T00:20:52;49.38;;;22.45;;
45684;SDS011;46836;48.388;16.210;2022-11-15T00:23:19;47.97;;;23.30;;
45684;SDS011;46836;48.388;16.210;2022-11-15T00:25:46;54.75;;;25.30;;
45684;SDS011;46836;48.388;16.210;2022-11-15T00:28:13;49.17;;;24.83;;
45684;SDS011;46836;48.388;16.210;2022-11-15T00:30:40;60.60;;;23.80;;
45684;SDS011;46836;48.388;16.210;2022-11-15T00:33:08;51.28;;;22.25;;
45684;SDS011;46836;48.388;16.210;2022-11-15T00:35:36;51.28;;;23.25;;
45684;SDS011;46836;48.388;16.210;2022-11-15T00:38:03;45.55;;;22.52;;
45684;SDS011;46836;48.388;16.210;2022-11-15T00:40:30;46.53;;;23.15;;
45684;SDS011;46836;48.388;16.210;2022-11-15T00:42:57;48.08;;;23.92;;
45684;SDS011;46836;48.388;16.210;2022-11-15T00:45:24;56.22;;;22.95;;
45684;SDS011;46836;48.388;16.210;2022-11-15T00:47:52;56.88;;;25.20;;
45684;SDS011;46836;48.388;16.210;2022-11-15T00:50:19;54.13;;;24.17;;
45684;SDS011;46836;48.388;16.210;2022-11-15T00:52:46;58.58;;;24.00;;
45684;SDS011;46836;48.388;16.210;2022-11-15T00:55:14;52.35;;;24.30;;
45684;SDS011;46836;48.388;16.210;2022-11-15T00:57:43;50.97;;;23.70;;
45684;SDS011;46836;48.388;16.210;2022-11-15T01:00:11;51.67;;;24.88;;
45684;SDS011;46836;48.388;16.210;2022-11-15T01:02:38;53.53;;;25.35;;
45684;SDS011;46836;48.388;16.210;2022-11-15T01:05:05;54.45;;;23.92;;
45684;SDS011;46836;48.388;16.210;2022-11-15T01:07:33;59.80;;;25.83;;
45684;SDS011;46836;48.388;16.210;2022-11-15T01:10:00;51.28;;;25.85;;
45684;SDS011;46836;48.388;16.210;2022-11-15T01:12:27;56.38;;;25.40;;
45684;SDS011;46836;48.388;16.210;2022-11-15T01:14:54;57.25;;;26.38;;
45684;SDS011;46836;48.388;16.210;2022-11-15T01:17:21;51.08;;;24.83;;
45684;SDS011;46836;48.388;16.210;2022-11-15T01:19:48;63.00;;;26.83;;
45684;SDS011;46836;48.388;16.210;2022-11-15T01:22:15;52.75;;;22.88;;
45684;SDS011;46836;48.388;16.210;2022-11-15T01:24:42;53.80;;;24.48;;
45684;SDS011;46836;48.388;16.210;2022-11-15T01:27:09;59.90;;;24.10;;
45684;SDS011;46836;48.388;16.210;2022-11-15T01:29:36;58.13;;;25.00;;
45684;SDS011;46836;48.388;16.210;2022-11-15T01:32:03;54.08;;;22.35;;
45684;SDS011;46836;48.388;16.210;2022-11-15T01:34:30;53.25;;;23.13;;
45684;SDS011;46836;48.388;16.210;2022-11-15T01:36:57;55.75;;;26.23;;
45684;SDS011;46836;48.388;16.210;2022-11-15T01:39:25;55.47;;;22.83;;
45684;SDS011;46836;48.388;16.210;2022-11-15T01:41:53;56.45;;;24.15;;
45684;SDS011;46836;48.388;16.210;2022-11-15T01:50:00;50.97;;;23.58;;
45684;SDS011;46836;48.388;16.210;2022-11-15T01:52:34;50.33;;;20.48;;
45684;SDS011;46836;48.388;16.210;2022-11-15T01:55:11;53.60;;;22.38;;
45684;SDS011;46836;48.388;16.210;2022-11-15T01:57:52;51.30;;;24.98;;
45684;SDS011;46836;48.388;16.210;2022-11-15T02:00:23;53.47;;;22.85;;
45684;SDS011;46836;48.388;16.210;2022-11-15T02:02:50;57.80;;;21.08;;
45684;SDS011;46836;48.388;16.210;2022-11-15T02:05:17;47.63;;;21.73;;
45684;SDS011;46836;48.388;16.210;2022-11-15T02:07:44;49.78;;;21.88;;
45684;SDS011;46836;48.388;16.210;2022-11-15T02:10:13;52.15;;;24.17;;
45684;SDS011;46836;48.388;16.210;2022-11-15T02:12:45;50.70;;;22.38;;
45684;SDS011;46836;48.388;16.210;2022-11-15T02:15:13;50.30;;;22.58;;
45684;SDS011;46836;48.388;16.210;2022-11-15T02:29:13;44.78;;;20.40;;
45684;SDS011;46836;48.388;16.210;2022-11-15T02:32:08;54.38;;;22.40;;
45684;SDS011;46836;48.388;16.210;2022-11-15T02:43:07;44.00;;;19.77;;
45684;SDS011;46836;48.388;16.210;2022-11-15T02:46:13;45.28;;;20.52;;
45684;SDS011;46836;48.388;16.210;2022-11-15T02:49:19;56.33;;;23.75;;
45684;SDS011;46836;48.388;16.210;2022-11-15T02:51:47;48.47;;;22.85;;
45684;SDS011;46836;48.388;16.210;2022-11-15T02:54:19;48.30;;;23.55;;
45684;SDS011;46836;48.388;16.210;2022-11-15T02:57:03;41.97;;;21.27;;
45684;SDS011;46836;48.388;16.210;2022-11-15T03:02:40;39.92;;;18.10;;
45684;SDS011;46836;48.388;16.210;2022-11-15T03:05:40;45.42;;;19.42;;
45684;SDS011;46836;48.388;16.210;2022-11-15T03:08:18;44.03;;;21.05;;
45684;SDS011;46836;48.388;16.210;2022-11-15T03:16:36;39.35;;;21.20;;
45684;SDS011;46836;48.388;16.210;2022-11-15T03:21:58;42.95;;;20.13;;
45684;SDS011;46836;48.388;16.210;2022-11-15T03:24:29;44.65;;;20.75;;
45684;SDS011;46836;48.388;16.210;2022-11-15T03:26:58;49.13;;;21.45;;
45684;SDS011;46836;48.388;16.210;2022-11-15T03:29:28;45.85;;;20.20;;
45684;SDS011;46836;48.388;16.210;2022-11-15T03:32:04;41.40;;;20.92;;
45684;SDS011;46836;48.388;16.210;2022-11-15T03:37:08;39.95;;;19.75;;
45684;SDS011;46836;48.388;16.210;2022-11-15T03:39:39;49.25;;;20.02;;
45684;SDS011;46836;48.388;16.210;2022-11-15T03:44:51;59.85;;;23.02;;
45684;SDS011;46836;48.388;16.210;2022-11-15T03:47:31;42.17;;;19.95;;
45684;SDS011;46836;48.388;16.210;2022-11-15T03:50:11;41.95;;;18.98;;
45684;SDS011;46836;48.388;16.210;2022-11-15T03:52:41;42.40;;;20.73;;
45684;SDS011;46836;48.388;16.210;2022-11-15T03:55:12;43.05;;;19.75;;
45684;SDS011;46836;48.388;16.210;2022-11-15T03:57:42;43.72;;;19.35;;
45684;SDS011;46836;48.388;16.210;2022-11-15T04:00:09;39.70;;;19.42;;
45684;SDS011;46836;48.388;16.210;2022-11-15T04:02:37;39.80;;;19.00;;
45684;SDS011;46836;48.388;16.210;2022-11-15T04:05:04;42.88;;;19.77;;
45684;SDS011;46836;48.388;16.210;2022-11-15T04:07:31;41.53;;;19.35;;
45684;SDS011;46836;48.388;16.210;2022-11-15T04:09:59;41.55;;;20.55;;
45684;SDS011;46836;48.388;16.210;2022-11-15T04:12:30;39.15;;;18.27;;
45684;SDS011;46836;48.388;16.210;2022-11-15T04:15:07;35.10;;;18.60;;
45684;SDS011;46836;48.388;16.210;2022-11-15T04:20:18;37.45;;;18.33;;
45684;SDS011;46836;48.388;16.210;2022-11-15T04:23:09;36.30;;;17.65;;
45684;SDS011;46836;48.388;16.210;2022-11-15T04:25:58;36.63;;;18.73;;
45684;SDS011;46836;48.388;16.210;2022-11-15T04:28:27;39.45;;;18.08;;
45684;SDS011;46836;48.388;16.210;2022-11-15T04:30:55;36.95;;;19.17;;
45684;SDS011;46836;48.388;16.210;2022-11-15T04:33:23;40.10;;;18.20;;
45684;SDS011;46836;48.388;16.210;2022-11-15T04:35:50;40.63;;;18.63;;
45684;SDS011;46836;48.388;16.210;2022-11-15T04:38:36;34.55;;;17.52;;
45684;SDS011;46836;48.388;16.210;2022-11-15T04:41:03;32.13;;;18.30;;
45684;SDS011;46836;48.388;16.210;2022-11-15T04:43:30;39.08;;;19.13;;
45684;SDS011;46836;48.388;16.210;2022-11-15T04:45:58;39.15;;;18.48;;
45684;SDS011;46836;48.388;16.210;2022-11-15T04:48:24;39.97;;;18.73;;
45684;SDS011;46836;48.388;16.210;2022-11-15T04:50:51;36.30;;;17.98;;
45684;SDS011;46836;48.388;16.210;2022-11-15T04:53:18;34.78;;;17.92;;
45684;SDS011;46836;48.388;16.210;2022-11-15T04:55:46;36.50;;;18.50;;
45684;SDS011;46836;48.388;16.210;2022-11-15T04:58:13;40.97;;;16.70;;
45684;SDS011;46836;48.388;16.210;2022-11-15T05:00:40;38.33;;;18.08;;
45684;SDS011;46836;48.388;16.210;2022-11-15T05:03:08;36.33;;;18.25;;
45684;SDS011;46836;48.388;16.210;2022-11-15T05:05:55;38.40;;;17.77;;
45684;SDS011;46836;48.388;16.210;2022-11-15T05:08:23;35.58;;;18.35;;
45684;SDS011;46836;48.388;16.210;2022-11-15T05:10:50;48.25;;;18.55;;
45684;SDS011;46836;48.388;16.210;2022-11-15T05:13:17;49.60;;;21.42;;
45684;SDS011;46836;48.388;16.210;2022-11-15T05:15:44;53.00;;;19.80;;
45684;SDS011;46836;48.388;16.210;2022-11-15T05:18:11;49.83;;;20.20;;
45684;SDS011;46836;48.388;16.210;2022-11-15T05:20:39;47.72;;;21.00;;
45684;SDS011;46836;48.388;16.210;2022-11-15T05:23:06;52.00;;;21.95;;
45684;SDS011;46836;48.388;16.210;2022-11-15T05:25:33;53.88;;;21.67;;
45684;SDS011;46836;48.388;16.210;2022-11-15T05:28:01;58.63;;;22.63;;
45684;SDS011;46836;48.388;16.210;2022-11-15T05:30:29;53.80;;;21.40;;
45684;SDS011;46836;48.388;16.210;2022-11-15T05:32:56;53.17;;;21.23;;
45684;SDS011;46836;48.388;16.210;2022-11-15T05:35:30;54.22;;;22.38;;
45684;SDS011;46836;48.388;16.210;2022-11-15T05:38:01;50.85;;;23.30;;
45684;SDS011;46836;48.388;16.210;2022-11-15T05:40:28;46.70;;;20.92;;
45684;SDS011;46836;48.388;16.210;2022-11-15T05:42:56;50.60;;;21.63;;
45684;SDS011;46836;48.388;16.210;2022-11-15T05:45:26;46.67;;;22.63;;
45684;SDS011;46836;48.388;16.210;2022-11-15T05:47:54;57.65;;;21.60;;
45684;SDS011;46836;48.388;16.210;2022-11-15T05:50:24;46.00;;;22.08;;
45684;SDS011;46836;48.388;16.210;2022-11-15T05:52:52;51.00;;;22.55;;
45684;SDS011;46836;48.388;16.210;2022-11-15T05:55:26;48.17;;;20.00;;
45684;SDS011;46836;48.388;16.210;2022-11-15T05:57:53;40.90;;;19.05;;
45684;SDS011;46836;48.388;16.210;2022-11-15T06:00:20;42.00;;;21.77;;
45684;SDS011;46836;48.388;16.210;2022-11-15T06:02:47;39.55;;;19.85;;
45684;SDS011;46836;48.388;16.210;2022-11-15T06:05:14;40.65;;;19.95;;
45684;SDS011;46836;48.388;16.210;2022-11-15T06:07:41;45.92;;;20.67;;
45684;SDS011;46836;48.388;16.210;2022-11-15T06:10:10;37.40;;;18.02;;
45684;SDS011;46836;48.388;16.210;2022-11-15T06:12:37;37.92;;;18.20;;
45684;SDS011;46836;48.388;16.210;2022-11-15T06:15:04;44.85;;;20.52;;
45684;SDS011;46836;48.388;16.210;2022-11-15T06:17:32;46.00;;;18.83;;
45684;SDS011;46836;48.388;16.210;2022-11-15T06:19:59;42.28;;;21.15;;
45684;SDS011;46836;48.388;16.210;2022-11-15T06:22:26;47.05;;;18.80;;
45684;SDS011;46836;48.388;16.210;2022-11-15T06:24:53;46.20;;;19.70;;
45684;SDS011;46836;48.388;16.210;2022-11-15T06:27:20;47.25;;;20.23;;
45684;SDS011;46836;48.388;16.210;2022-11-15T06:29:47;41.78;;;19.67;;
45684;SDS011;46836;48.388;16.210;2022-11-15T06:32:14;43.88;;;20.13;;
45684;SDS011;46836;48.388;16.210;2022-11-15T06:34:41;48.85;;;19.00;;
45684;SDS011;46836;48.388;16.210;2022-11-15T06:37:08;46.95;;;21.25;;
45684;SDS011;46836;48.388;16.210;2022-11-15T06:39:35;57.13;;;20.08;;
45684;SDS011;46836;48.388;16.210;2022-11-15T06:42:02;48.90;;;20.20;;
45684;SDS011;46836;48.388;16.210;2022-11-15T06:44:29;41.88;;;20.15;;
45684;SDS011;46836;48.388;16.210;2022-11-15T06:46:56;49.10;;;20.02;;
45684;SDS011;46836;48.388;16.210;2022-11-15T06:49:23;42.00;;;20.00;;
45684;SDS011;46836;48.388;16.210;2022-11-15T06:51:50;50.38;;;20.95;;
45684;SDS011;46836;48.388;16.210;2022-11-15T06:54:17;47.40;;;19.92;;
45684;SDS011;46836;48.388;16.210;2022-11-15T06:56:44;46.53;;;19.80;;
45684;SDS011;46836;48.388;16.210;2022-11-15T06:59:11;46.20;;;19.83;;
45684;SDS011;46836;48.388;16.210;2022-11-15T07:01:38;48.13;;;20.17;;
45684;SDS011;46836;48.388;16.210;2022-11-15T07:04:05;42.88;;;20.20;;
45684;SDS011;46836;48.388;16.210;2022-11-15T07:06:32;45.97;;;22.63;;
45684;SDS011;46836;48.388;16.210;2022-11-15T07:08:59;44.60;;;20.48;;
45684;SDS011;46836;48.388;16.210;2022-11-15T07:11:29;52.72;;;20.88;;
45684;SDS011;46836;48.388;16.210;2022-11-15T07:13:56;60.08;;;21.00;;
45684;SDS011;46836;48.388;16.210;2022-11-15T07:16:23;48.33;;;21.50;;
45684;SDS011;46836;48.388;16.210;2022-11-15T07:18:50;45.15;;;20.40;;
45684;SDS011;46836;48.388;16.210;2022-11-15T07:21:17;46.55;;;22.08;;
45684;SDS011;46836;48.388;16.210;2022-11-15T07:23:51;43.13;;;20.70;;
45684;SDS011;46836;48.388;16.210;2022-11-15T07:26:18;52.47;;;22.40;;
45684;SDS011;46836;48.388;16.210;2022-11-15T07:28:45;63.55;;;19.42;;
45684;SDS011;46836;48.388;16.210;2022-11-15T07:31:13;49.03;;;20.27;;
45684;SDS011;46836;48.388;16.210;2022-11-15T07:33:40;45.40;;;20.55;;
45684;SDS011;46836;48.388;16.210;2022-11-15T07:36:07;46.85;;;22.10;;
45684;SDS011;46836;48.388;16.210;2022-11-15T07:38:35;39.00;;;20.77;;
45684;SDS011;46836;48.388;16.210;2022-11-15T07:41:08;54.20;;;20.10;;
45684;SDS011;46836;48.388;16.210;2022-11-15T07:43:35;62.55;;;23.95;;
45684;SDS011;46836;48.388;16.210;2022-11-15T07:46:06;56.00;;;21.35;;
45684;SDS011;46836;48.388;16.210;2022-11-15T07:48:36;46.22;;;21.13;;
45684;SDS011;46836;48.388;16.210;2022-11-15T07:51:13;50.45;;;21.85;;
45684;SDS011;46836;48.388;16.210;2022-11-15T07:53:42;47.65;;;22.42;;
45684;SDS011;46836;48.388;16.210;2022-11-15T07:56:10;47.40;;;22.35;;
45684;SDS011;46836;48.388;16.210;2022-11-15T07:58:38;44.05;;;20.42;;
45684;SDS011;46836;48.388;16.210;2022-11-15T08:01:05;44.60;;;21.33;;
45684;SDS011;46836;48.388;16.210;2022-11-15T08:03:35;47.25;;;20.60;;
45684;SDS011;46836;48.388;16.210;2022-11-15T08:06:02;50.80;;;21.80;;
45684;SDS011;46836;48.388;16.210;2022-11-15T08:08:30;43.03;;;20.83;;
45684;SDS011;46836;48.388;16.210;2022-11-15T08:10:57;44.92;;;20.30;;
45684;SDS011;46836;48.388;16.210;2022-11-15T08:13:25;40.17;;;21.52;;
45684;SDS011;46836;48.388;16.210;2022-11-15T08:15:56;47.65;;;21.52;;
45684;SDS011;46836;48.388;16.210;2022-11-15T08:18:25;43.97;;;19.83;;
45684;SDS011;46836;48.388;16.210;2022-11-15T08:20:52;43.17;;;20.77;;
45684;SDS011;46836;48.388;16.210;2022-11-15T08:23:20;41.38;;;21.17;;
45684;SDS011;46836;48.388;16.210;2022-11-15T08:25:48;48.60;;;21.42;;
45684;SDS011;46836;48.388;16.210;2022-11-15T08:28:15;42.05;;;20.65;;
45684;SDS011;46836;48.388;16.210;2022-11-15T08:30:43;49.97;;;21.52;;
45684;SDS011;46836;48.388;16.210;2022-11-15T08:33:13;46.92;;;22.30;;
45684;SDS011;46836;48.388;16.210;2022-11-15T08:35:40;52.13;;;21.05;;
45684;SDS011;46836;48.388;16.210;2022-11-15T08:38:08;41.05;;;20.23;;
45684;SDS011;46836;48.388;16.210;2022-11-15T08:40:36;51.28;;;21.25;;
45684;SDS011;46836;48.388;16.210;2022-11-15T08:43:04;41.35;;;19.10;;
45684;SDS011;46836;48.388;16.210;2022-11-15T08:45:32;60.28;;;25.65;;
45684;SDS011;46836;48.388;16.210;2022-11-15T08:48:01;53.20;;;21.67;;
45684;SDS011;46836;48.388;16.210;2022-11-15T08:50:29;48.55;;;21.40;;
45684;SDS011;46836;48.388;16.210;2022-11-15T08:52:57;42.90;;;19.75;;
45684;SDS011;46836;48.388;16.210;2022-11-15T08:55:24;44.92;;;20.55;;
45684;SDS011;46836;48.388;16.210;2022-11-15T08:57:51;45.75;;;21.23;;
45684;SDS011;46836;48.388;16.210;2022-11-15T09:00:18;43.35;;;20.40;;
45684;SDS011;46836;48.388;16.210;2022-11-15T09:02:46;45.30;;;20.88;;
45684;SDS011;46836;48.388;16.210;2022-11-15T09:05:13;43.35;;;20.70;;
45684;SDS011;46836;48.388;16.210;2022-11-15T09:07:41;44.50;;;20.52;;
45684;SDS011;46836;48.388;16.210;2022-11-15T09:10:09;42.50;;;20.52;;
45684;SDS011;46836;48.388;16.210;2022-11-15T09:12:36;43.63;;;20.50;;
45684;SDS011;46836;48.388;16.210;2022-11-15T09:15:04;59.72;;;25.00;;
45684;SDS011;46836;48.388;16.210;2022-11-15T09:17:32;58.28;;;21.52;;
45684;SDS011;46836;48.388;16.210;2022-11-15T09:19:59;43.28;;;20.95;;
45684;SDS011;46836;48.388;16.210;2022-11-15T09:22:26;41.83;;;20.63;;
45684;SDS011;46836;48.388;16.210;2022-11-15T09:24:53;44.97;;;20.75;;
45684;SDS011;46836;48.388;16.210;2022-11-15T09:27:21;41.92;;;20.08;;
45684;SDS011;46836;48.388;16.210;2022-11-15T09:29:48;39.47;;;20.30;;
45684;SDS011;46836;48.388;16.210;2022-11-15T09:32:15;42.15;;;19.52;;
45684;SDS011;46836;48.388;16.210;2022-11-15T09:34:42;39.85;;;21.00;;
45684;SDS011;46836;48.388;16.210;2022-11-15T09:37:09;40.80;;;19.65;;
45684;SDS011;46836;48.388;16.210;2022-11-15T09:39:36;49.15;;;21.90;;
45684;SDS011;46836;48.388;16.210;2022-11-15T09:50:56;40.53;;;18.23;;
45684;SDS011;46836;48.388;16.210;2022-11-15T09:56:24;42.00;;;19.38;;
45684;SDS011;46836;48.388;16.210;2022-11-15T10:04:41;46.65;;;20.38;;
45684;SDS011;46836;48.388;16.210;2022-11-15T10:12:17;43.20;;;18.45;;
45684;SDS011;46836;48.388;16.210;2022-11-15T10:14:45;44.05;;;20.75;;
45684;SDS011;46836;48.388;16.210;2022-11-15T10:20:21;48.85;;;20.27;;
45684;SDS011;46836;48.388;16.210;2022-11-15T10:22:52;41.85;;;19.98;;
45684;SDS011;46836;48.388;16.210;2022-11-15T10:28:43;42.80;;;19.80;;
45684;SDS011;46836;48.388;16.210;2022-11-15T10:30:48;41.60;;;19.25;;
45684;SDS011;46836;48.388;16.210;2022-11-15T10:35:48;46.17;;;20.23;;
45684;SDS011;46836;48.388;16.210;2022-11-15T10:39:13;42.40;;;20.27;;
45684;SDS011;46836;48.388;16.210;2022-11-15T10:41:39;54.65;;;22.33;;
45684;SDS011;46836;48.388;16.210;2022-11-15T10:49:30;42.03;;;20.15;;
45684;SDS011;46836;48.388;16.210;2022-11-15T10:54:30;40.35;;;19.95;;
45684;SDS011;46836;48.388;16.210;2022-11-15T10:57:08;46.88;;;20.30;;
45684;SDS011;46836;48.388;16.210;2022-11-15T10:59:42;44.10;;;18.88;;
45684;SDS011;46836;48.388;16.210;2022-11-15T11:05:36;44.92;;;21.23;;
45684;SDS011;46836;48.388;16.210;2022-11-15T11:10:38;40.88;;;21.52;;
45684;SDS011;46836;48.388;16.210;2022-11-15T11:13:36;48.03;;;20.70;;
45684;SDS011;46836;48.388;16.210;2022-11-15T11:21:26;45.95;;;19.80;;
45684;SDS011;46836;48.388;16.210;2022-11-15T11:24:16;52.92;;;21.80;;
45684;SDS011;46836;48.388;16.210;2022-11-15T11:34:42;55.60;;;23.00;;
45684;SDS011;46836;48.388;16.210;2022-11-15T11:46:14;49.90;;;22.50;;
45684;SDS011;46836;48.388;16.210;2022-11-15T11:49:07;53.30;;;21.77;;
45684;SDS011;46836;48.388;16.210;2022-11-15T11:56:43;48.40;;;21.80;;
45684;SDS011;46836;48.388;16.210;2022-11-15T12:02:14;65.00;;;25.60;;
45684;SDS011;46836;48.388;16.210;2022-11-15T12:04:51;54.75;;;23.20;;
45684;SDS011;46836;48.388;16.210;2022-11-15T12:07:25;46.70;;;21.33;;
45684;SDS011;46836;48.388;16.210;2022-11-15T12:09:59;45.75;;;22.38;;
45684;SDS011;46836;48.388;16.210;2022-11-15T12:12:39;47.35;;;21.23;;
45684;SDS011;46836;48.388;16.210;2022-11-15T12:15:31;51.95;;;22.45;;
45684;SDS011;46836;48.388;16.210;2022-11-15T12:18:22;44.15;;;20.75;;
45684;SDS011;46836;48.388;16.210;2022-11-15T12:20:52;50.60;;;22.25;;
45684;SDS011;46836;48.388;16.210;2022-11-15T12:23:27;49.42;;;23.08;;
45684;SDS011;46836;48.388;16.210;2022-11-15T12:26:06;63.47;;;24.00;;
45684;SDS011;46836;48.388;16.210;2022-11-15T12:28:40;44.50;;;21.42;;
45684;SDS011;46836;48.388;16.210;2022-11-15T12:34:02;52.13;;;22.60;;
45684;SDS011;46836;48.388;16.210;2022-11-15T12:36:46;50.30;;;22.17;;
45684;SDS011;46836;48.388;16.210;2022-11-15T12:39:14;51.88;;;23.17;;
45684;SDS011;46836;48.388;16.210;2022-11-15T12:41:44;52.65;;;22.27;;
45684;SDS011;46836;48.388;16.210;2022-11-15T13:02:25;50.88;;;24.05;;
45684;SDS011;46836;48.388;16.210;2022-11-15T13:04:54;49.80;;;22.55;;
45684;SDS011;46836;48.388;16.210;2022-11-15T13:17:41;51.83;;;22.35;;
45684;SDS011;46836;48.388;16.210;2022-11-15T13:28:03;50.92;;;23.27;;
45684;SDS011;46836;48.388;16.210;2022-11-15T13:36:23;66.57;;;25.00;;
45684;SDS011;46836;48.388;16.210;2022-11-15T13:38:54;51.10;;;23.77;;
45684;SDS011;46836;48.388;16.210;2022-11-15T13:41:33;58.25;;;23.27;;
45684;SDS011;46836;48.388;16.210;2022-11-15T13:44:02;56.03;;;23.75;;
45684;SDS011;46836;48.388;16.210;2022-11-15T13:46:31;71.95;;;26.17;;
45684;SDS011;46836;48.388;16.210;2022-11-15T13:59:47;61.00;;;25.83;;
45684;SDS011;46836;48.388;16.210;2022-11-15T14:02:19;54.33;;;23.55;;
45684;SDS011;46836;48.388;16.210;2022-11-15T14:04:54;59.35;;;24.30;;
45684;SDS011;46836;48.388;16.210;2022-11-15T14:07:25;54.78;;;24.10;;
45684;SDS011;46836;48.388;16.210;2022-11-15T14:09:54;57.53;;;24.88;;
45684;SDS011;46836;48.388;16.210;2022-11-15T14:12:29;58.63;;;24.95;;
45684;SDS011;46836;48.388;16.210;2022-11-15T14:14:59;63.63;;;25.23;;
45684;SDS011;46836;48.388;16.210;2022-11-15T14:19:55;69.97;;;28.20;;
45684;SDS011;46836;48.388;16.210;2022-11-15T14:22:24;70.85;;;29.75;;
45684;SDS011;46836;48.388;16.210;2022-11-15T14:27:40;66.70;;;29.85;;
45684;SDS011;46836;48.388;16.210;2022-11-15T14:30:16;63.92;;;25.90;;
45684;SDS011;46836;48.388;16.210;2022-11-15T14:32:45;69.20;;;27.45;;
45684;SDS011;46836;48.388;16.210;2022-11-15T14:35:16;60.50;;;28.55;;
45684;SDS011;46836;48.388;16.210;2022-11-15T14:37:47;61.58;;;28.33;;
45684;SDS011;46836;48.388;16.210;2022-11-15T14:40:19;62.97;;;27.23;;
45684;SDS011;46836;48.388;16.210;2022-11-15T14:42:47;62.60;;;26.65;;
45684;SDS011;46836;48.388;16.210;2022-11-15T14:45:19;64.50;;;27.05;;
45684;SDS011;46836;48.388;16.210;2022-11-15T14:47:48;61.17;;;27.85;;
45684;SDS011;46836;48.388;16.210;2022-11-15T14:50:16;72.40;;;28.83;;
45684;SDS011;46836;48.388;16.210;2022-11-15T14:52:45;69.97;;;29.70;;
45684;SDS011;46836;48.388;16.210;2022-11-15T14:57:46;52.90;;;26.02;;
45684;SDS011;46836;48.388;16.210;2022-11-15T15:00:13;72.20;;;28.95;;
45684;SDS011;46836;48.388;16.210;2022-11-15T15:02:42;63.60;;;28.13;;
45684;SDS011;46836;48.388;16.210;2022-11-15T15:07:47;56.38;;;27.95;;
45684;SDS011;46836;48.388;16.210;2022-11-15T15:10:15;49.97;;;27.70;;
45684;SDS011;46836;48.388;16.210;2022-11-15T15:13:03;66.30;;;28.70;;
45684;SDS011;46836;48.388;16.210;2022-11-15T15:15:32;60.97;;;27.63;;
45684;SDS011;46836;48.388;16.210;2022-11-15T15:18:01;63.78;;;27.83;;
45684;SDS011;46836;48.388;16.210;2022-11-15T15:20:31;53.33;;;26.83;;
45684;SDS011;46836;48.388;16.210;2022-11-15T15:22:58;55.00;;;26.15;;
45684;SDS011;46836;48.388;16.210;2022-11-15T15:25:30;58.30;;;26.17;;
45684;SDS011;46836;48.388;16.210;2022-11-15T15:27:59;60.00;;;27.17;;
45684;SDS011;46836;48.388;16.210;2022-11-15T15:30:28;53.58;;;25.45;;
45684;SDS011;46836;48.388;16.210;2022-11-15T15:32:57;58.90;;;26.60;;
45684;SDS011;46836;48.388;16.210;2022-11-15T15:35:24;62.60;;;28.88;;
45684;SDS011;46836;48.388;16.210;2022-11-15T15:37:55;58.20;;;29.65;;
45684;SDS011;46836;48.388;16.210;2022-11-15T15:40:23;56.17;;;28.50;;
45684;SDS011;46836;48.388;16.210;2022-11-15T15:42:51;63.33;;;28.92;;
45684;SDS011;46836;48.388;16.210;2022-11-15T15:45:18;57.47;;;30.05;;
45684;SDS011;46836;48.388;16.210;2022-11-15T15:47:46;61.33;;;28.98;;
45684;SDS011;46836;48.388;16.210;2022-11-15T15:52:49;54.35;;;26.33;;
45684;SDS011;46836;48.388;16.210;2022-11-15T15:55:20;54.80;;;26.30;;
45684;SDS011;46836;48.388;16.210;2022-11-15T15:57:48;57.88;;;26.83;;
45684;SDS011;46836;48.388;16.210;2022-11-15T16:00:16;67.07;;;28.80;;
45684;SDS011;46836;48.388;16.210;2022-11-15T16:02:44;62.50;;;28.88;;
45684;SDS011;46836;48.388;16.210;2022-11-15T16:05:12;69.53;;;31.15;;
45684;SDS011;46836;48.388;16.210;2022-11-15T16:07:39;80.90;;;33.08;;
45684;SDS011;46836;48.388;16.210;2022-11-15T16:10:31;82.65;;;33.40;;
45684;SDS011;46836;48.388;16.210;2022-11-15T16:13:03;86.30;;;33.50;;
45684;SDS011;46836;48.388;16.210;2022-11-15T16:15:30;77.30;;;33.15;;
45684;SDS011;46836;48.388;16.210;2022-11-15T16:17:59;92.47;;;36.55;;
45684;SDS011;46836;48.388;16.210;2022-11-15T16:23:10;81.20;;;37.42;;
45684;SDS011;46836;48.388;16.210;2022-11-15T16:25:41;86.75;;;33.70;;
45684;SDS011;46836;48.388;16.210;2022-11-15T16:28:16;77.10;;;34.72;;
45684;SDS011;46836;48.388;16.210;2022-11-15T16:30:44;75.55;;;33.47;;
45684;SDS011;46836;48.388;16.210;2022-11-15T16:33:15;74.60;;;33.03;;
45684;SDS011;46836;48.388;16.210;2022-11-15T16:35:44;67.72;;;31.55;;
45684;SDS011;46836;48.388;16.210;2022-11-15T16:38:14;70.60;;;35.25;;
45684;SDS011;46836;48.388;16.210;2022-11-15T16:40:42;81.70;;;34.50;;
45684;SDS011;46836;48.388;16.210;2022-11-15T16:43:10;80.57;;;34.17;;
45684;SDS011;46836;48.388;16.210;2022-11-15T16:45:38;85.38;;;35.15;;
45684;SDS011;46836;48.388;16.210;2022-11-15T16:48:05;74.10;;;34.13;;
45684;SDS011;46836;48.388;16.210;2022-11-15T16:50:33;76.85;;;34.40;;
45684;SDS011;46836;48.388;16.210;2022-11-15T16:53:07;76.78;;;33.13;;
45684;SDS011;46836;48.388;16.210;2022-11-15T16:55:34;75.38;;;32.22;;
45684;SDS011;46836;48.388;16.210;2022-11-15T16:58:02;74.93;;;31.70;;
45684;SDS011;46836;48.388;16.210;2022-11-15T17:00:29;65.38;;;31.83;;
45684;SDS011;46836;48.388;16.210;2022-11-15T17:02:56;72.25;;;32.60;;
45684;SDS011;46836;48.388;16.210;2022-11-15T17:05:23;70.32;;;30.45;;
45684;SDS011;46836;48.388;16.210;2022-11-15T17:07:53;68.32;;;31.13;;
45684;SDS011;46836;48.388;16.210;2022-11-15T17:10:21;68.53;;;31.15;;
45684;SDS011;46836;48.388;16.210;2022-11-15T17:12:49;71.68;;;34.40;;
45684;SDS011;46836;48.388;16.210;2022-11-15T17:15:17;68.22;;;30.95;;
45684;SDS011;46836;48.388;16.210;2022-11-15T17:17:49;77.78;;;31.75;;
45684;SDS011;46836;48.388;16.210;2022-11-15T17:20:22;68.00;;;31.58;;
45684;SDS011;46836;48.388;16.210;2022-11-15T17:22:50;76.63;;;32.28;;
45684;SDS011;46836;48.388;16.210;2022-11-15T17:25:18;76.38;;;33.35;;
45684;SDS011;46836;48.388;16.210;2022-11-15T17:27:46;74.13;;;33.75;;
45684;SDS011;46836;48.388;16.210;2022-11-15T17:30:15;72.13;;;31.75;;
45684;SDS011;46836;48.388;16.210;2022-11-15T17:32:44;71.70;;;32.47;;
45684;SDS011;46836;48.388;16.210;2022-11-15T17:35:16;67.10;;;31.60;;
45684;SDS011;46836;48.388;16.210;2022-11-15T17:37:44;73.15;;;32.50;;